Time;durP1;ratioP1;P1;durP2;ratioP2;P2;SDS_P1;SDS_P2;PMS_P1;PMS_P2;Temp;Humidity;BMP_temperature;BMP_pressure;BME280_temperature;BME280_humidity;BME280_pressure;Samples;Min_cycle;Max_cycle;Signal;HPM_P1;HPM_P2
2022/11/05 00:17:15;;;;;;;8.30;6.40;;;;;;;;;;109052;1261;22537;-29
2022/11/05 00:19:47;;;;;;;9.10;6.10;;;;;;;;;;108976;1263;22540;-29
2022/11/05 00:25:15;;;;;;;8.50;6.20;;;;;;;;;;108961;1269;22567;-29
2022/11/05 00:27:51;;;;;;;7.50;5.70;;;;;;;;;;108948;1260;23908;-29
2022/11/05 00:30:25;;;;;;;8.50;5.70;;;;;;;;;;108924;1261;22541;-29
2022/11/05 00:33:03;;;;;;;8.20;6.00;;;;;;;;;;108987;1264;22534;-29
2022/11/05 00:35:36;;;;;;;8.40;5.90;;;;;;;;;;109040;1263;22552;-29
2022/11/05 00:38:11;;;;;;;8.30;6.00;;;;;;;;;;109046;1263;25484;-29
2022/11/05 00:40:43;;;;;;;7.60;6.00;;;;;;;;;;108955;1260;25227;-29
2022/11/05 00:46:14;;;;;;;7.90;5.90;;;;;;;;;;108643;1263;22545;-29
2022/11/05 00:51:42;;;;;;;8.60;5.80;;;;;;;;;;108815;1266;22566;-28
2022/11/05 00:54:14;;;;;;;8.20;5.70;;;;;;;;;;108992;1260;22515;-28
2022/11/05 00:56:46;;;;;;;7.60;5.90;;;;;;;;;;109043;1265;22528;-28
2022/11/05 00:59:19;;;;;;;9.60;6.60;;;;;;;;;;109029;1261;22537;-28
2022/11/05 01:01:51;;;;;;;8.40;6.30;;;;;;;;;;108947;1262;22698;-28
2022/11/05 01:04:23;;;;;;;7.60;5.70;;;;;;;;;;108926;1260;22532;-28
2022/11/05 01:06:56;;;;;;;7.70;5.90;;;;;;;;;;108955;1259;22531;-28
2022/11/05 01:09:31;;;;;;;8.10;5.80;;;;;;;;;;108957;1260;22653;-28
2022/11/05 01:12:04;;;;;;;8.50;5.70;;;;;;;;;;108954;1262;24038;-28
2022/11/05 01:14:37;;;;;;;8.00;5.90;;;;;;;;;;109035;1266;22527;-28
2022/11/05 01:17:09;;;;;;;8.00;5.90;;;;;;;;;;109016;1261;22619;-28
2022/11/05 01:19:44;;;;;;;7.10;5.70;;;;;;;;;;109043;1263;22548;-28
2022/11/05 01:22:16;;;;;;;8.10;5.80;;;;;;;;;;108923;1266;22546;-28
2022/11/05 01:24:49;;;;;;;7.90;5.80;;;;;;;;;;108941;1263;22638;-28
2022/11/05 01:27:21;;;;;;;8.10;5.50;;;;;;;;;;108924;1268;22531;-28
2022/11/05 01:29:53;;;;;;;7.00;5.30;;;;;;;;;;108942;1268;22582;-28
2022/11/05 01:32:26;;;;;;;8.60;5.60;;;;;;;;;;108933;1261;22658;-27
2022/11/05 01:34:58;;;;;;;7.70;5.70;;;;;;;;;;109014;1260;22493;-28
2022/11/05 01:37:31;;;;;;;8.10;5.70;;;;;;;;;;108991;1259;22534;-28
2022/11/05 01:40:04;;;;;;;7.80;5.20;;;;;;;;;;109060;1259;22703;-28
2022/11/05 01:42:37;;;;;;;8.20;5.50;;;;;;;;;;108936;1261;22501;-28
2022/11/05 01:45:18;;;;;;;8.60;5.50;;;;;;;;;;108941;1267;22593;-28
2022/11/05 01:48:11;;;;;;;9.30;5.60;;;;;;;;;;108940;1259;22543;-28
2022/11/05 01:50:48;;;;;;;7.60;5.50;;;;;;;;;;108973;1267;22544;-28
2022/11/05 01:53:33;;;;;;;7.90;5.50;;;;;;;;;;108940;1260;22553;-28
2022/11/05 01:56:09;;;;;;;8.20;5.30;;;;;;;;;;109020;1264;25931;-27
2022/11/05 01:58:50;;;;;;;7.60;5.30;;;;;;;;;;109026;1264;22534;-28
2022/11/05 02:01:23;;;;;;;8.20;5.40;;;;;;;;;;109024;1263;25892;-28
2022/11/05 02:04:01;;;;;;;7.80;5.70;;;;;;;;;;108877;1267;22542;-28
2022/11/05 02:06:41;;;;;;;7.90;5.90;;;;;;;;;;108971;1256;22534;-28
2022/11/05 02:09:18;;;;;;;7.50;5.40;;;;;;;;;;108955;1269;22542;-28
2022/11/05 02:11:52;;;;;;;7.50;5.60;;;;;;;;;;108904;1269;22548;-28
2022/11/05 02:14:24;;;;;;;7.70;5.40;;;;;;;;;;109034;1266;22514;-28
2022/11/05 02:17:03;;;;;;;6.90;5.60;;;;;;;;;;109005;1265;22657;-28
2022/11/05 02:20:34;;;;;;;7.30;5.40;;;;;;;;;;108896;1263;22527;-28
2022/11/05 02:23:56;;;;;;;8.00;5.70;;;;;;;;;;108952;1266;25207;-28
2022/11/05 02:27:11;;;;;;;7.20;5.50;;;;;;;;;;108927;1263;22545;-28
2022/11/05 02:30:09;;;;;;;8.20;5.80;;;;;;;;;;108920;1266;25312;-28
2022/11/05 02:33:13;;;;;;;7.70;5.90;;;;;;;;;;108839;1269;22535;-28
2022/11/05 02:36:23;;;;;;;7.10;5.00;;;;;;;;;;109010;1266;22552;-28
2022/11/05 02:39:10;;;;;;;7.40;5.30;;;;;;;;;;109052;1263;22547;-28
2022/11/05 02:41:55;;;;;;;8.70;5.40;;;;;;;;;;109010;1263;22580;-28
2022/11/05 02:44:37;;;;;;;7.50;5.60;;;;;;;;;;108937;1264;22665;-28
2022/11/05 02:47:19;;;;;;;7.20;5.50;;;;;;;;;;108925;1267;22574;-28
2022/11/05 02:50:03;;;;;;;7.70;5.60;;;;;;;;;;108927;1259;22544;-28
2022/11/05 02:52:46;;;;;;;8.10;5.60;;;;;;;;;;108990;1260;25399;-28
2022/11/05 02:55:30;;;;;;;7.50;5.50;;;;;;;;;;109043;1262;25281;-28
2022/11/05 02:58:04;;;;;;;7.90;5.60;;;;;;;;;;109040;1260;25370;-28
2022/11/05 03:00:50;;;;;;;7.80;5.40;;;;;;;;;;109033;1266;22555;-28
2022/11/05 03:03:37;;;;;;;7.20;5.10;;;;;;;;;;108975;1264;22541;-28
2022/11/05 03:06:34;;;;;;;7.50;5.40;;;;;;;;;;108894;1262;22539;-28
2022/11/05 03:09:27;;;;;;;7.90;5.70;;;;;;;;;;108953;1266;22534;-28
2022/11/05 03:12:12;;;;;;;8.90;5.90;;;;;;;;;;108895;1267;22536;-28
2022/11/05 03:14:54;;;;;;;7.50;5.50;;;;;;;;;;108967;1263;22672;-28
2022/11/05 03:17:36;;;;;;;7.70;5.30;;;;;;;;;;109052;1266;23844;-28
2022/11/05 03:20:21;;;;;;;7.80;5.40;;;;;;;;;;109063;1260;22595;-28
2022/11/05 03:22:58;;;;;;;8.10;6.00;;;;;;;;;;109033;1264;22551;-28
2022/11/05 03:25:32;;;;;;;7.50;5.40;;;;;;;;;;108924;1266;23893;-28
2022/11/05 03:28:09;;;;;;;7.20;6.00;;;;;;;;;;108946;1262;22761;-28
2022/11/05 03:30:43;;;;;;;7.50;5.50;;;;;;;;;;108945;1269;25251;-28
2022/11/05 03:33:21;;;;;;;7.00;5.40;;;;;;;;;;108929;1267;24026;-28
2022/11/05 03:35:56;;;;;;;8.70;5.30;;;;;;;;;;109009;1263;22544;-30
2022/11/05 03:38:34;;;;;;;7.10;5.00;;;;;;;;;;109026;1259;22657;-30
2022/11/05 03:41:13;;;;;;;6.90;5.60;;;;;;;;;;109028;1266;23862;-30
2022/11/05 03:43:54;;;;;;;7.10;5.30;;;;;;;;;;109033;1264;23815;-30
2022/11/05 03:46:34;;;;;;;7.00;5.20;;;;;;;;;;108944;1264;23787;-30
2022/11/05 03:49:15;;;;;;;7.10;5.10;;;;;;;;;;108902;1269;22534;-30
2022/11/05 03:51:57;;;;;;;8.40;6.10;;;;;;;;;;108943;1269;22593;-30
2022/11/05 03:54:29;;;;;;;8.10;5.60;;;;;;;;;;108890;1256;23693;-30
2022/11/05 03:57:09;;;;;;;7.00;4.90;;;;;;;;;;109032;1265;22534;-30
2022/11/05 03:59:48;;;;;;;8.40;5.70;;;;;;;;;;108989;1261;22584;-30
2022/11/05 04:02:24;;;;;;;7.30;5.30;;;;;;;;;;109019;1266;22521;-30
2022/11/05 04:04:57;;;;;;;7.70;5.10;;;;;;;;;;108971;1259;22531;-30
2022/11/05 04:13:24;;;;;;;7.40;5.60;;;;;;;;;;108925;1263;22667;-30
2022/11/05 04:18:48;;;;;;;7.50;5.90;;;;;;;;;;109008;1265;22765;-30
2022/11/05 04:24:21;;;;;;;6.50;4.90;;;;;;;;;;108744;1269;23856;-30
2022/11/05 04:26:53;;;;;;;7.20;5.40;;;;;;;;;;108904;1266;23741;-30
2022/11/05 04:32:15;;;;;;;7.50;5.20;;;;;;;;;;108898;1267;22529;-30
2022/11/05 04:34:47;;;;;;;7.90;5.40;;;;;;;;;;108943;1263;23853;-30
2022/11/05 04:37:20;;;;;;;7.70;5.20;;;;;;;;;;108997;1259;23883;-30
2022/11/05 04:39:52;;;;;;;7.10;5.30;;;;;;;;;;109007;1261;22568;-30
2022/11/05 04:42:25;;;;;;;7.60;5.40;;;;;;;;;;109006;1263;23883;-30
2022/11/05 04:44:57;;;;;;;7.40;5.30;;;;;;;;;;109004;1262;22614;-30
2022/11/05 04:47:30;;;;;;;7.60;5.50;;;;;;;;;;109006;1263;22533;-30
2022/11/05 04:50:02;;;;;;;7.40;5.30;;;;;;;;;;108906;1263;22545;-30
2022/11/05 04:52:34;;;;;;;7.60;5.30;;;;;;;;;;108970;1260;22555;-30
2022/11/05 04:55:08;;;;;;;7.90;5.70;;;;;;;;;;108986;1263;22546;-30
2022/11/05 04:57:41;;;;;;;7.30;5.20;;;;;;;;;;108998;1260;22548;-30
2022/11/05 05:00:15;;;;;;;7.70;5.30;;;;;;;;;;109011;1262;22529;-30
2022/11/05 05:02:48;;;;;;;7.70;5.40;;;;;;;;;;109032;1262;22559;-30
2022/11/05 05:05:21;;;;;;;7.10;5.20;;;;;;;;;;108964;1266;22518;-30
2022/11/05 05:07:54;;;;;;;6.90;5.00;;;;;;;;;;108885;1262;22547;-30
2022/11/05 05:10:27;;;;;;;7.80;5.50;;;;;;;;;;108952;1262;22531;-30
2022/11/05 05:13:01;;;;;;;7.20;5.60;;;;;;;;;;108945;1262;22510;-30
2022/11/05 05:15:33;;;;;;;7.80;5.90;;;;;;;;;;108945;1262;22780;-30
2022/11/05 05:18:06;;;;;;;7.90;5.50;;;;;;;;;;108981;1263;22687;-30
2022/11/05 05:23:30;;;;;;;7.00;5.40;;;;;;;;;;109060;1262;22487;-30
2022/11/05 05:26:02;;;;;;;8.20;5.30;;;;;;;;;;108987;1261;22540;-30
2022/11/05 05:28:37;;;;;;;7.30;5.50;;;;;;;;;;108944;1267;22555;-30
2022/11/05 05:31:09;;;;;;;7.40;5.40;;;;;;;;;;108940;1263;22508;-30
2022/11/05 05:33:42;;;;;;;7.90;5.60;;;;;;;;;;108935;1262;23091;-30
2022/11/05 05:36:15;;;;;;;7.40;5.40;;;;;;;;;;108915;1254;22690;-30
2022/11/05 05:38:47;;;;;;;7.40;5.60;;;;;;;;;;108994;1262;22537;-30
2022/11/05 05:41:20;;;;;;;7.70;5.80;;;;;;;;;;109010;1260;22537;-30
2022/11/05 05:43:52;;;;;;;7.30;5.70;;;;;;;;;;109032;1253;25220;-29
2022/11/05 05:46:25;;;;;;;7.80;5.50;;;;;;;;;;109043;1259;25921;-29
2022/11/05 05:49:01;;;;;;;8.30;6.10;;;;;;;;;;108903;1262;23981;-29
2022/11/05 05:51:34;;;;;;;7.50;5.80;;;;;;;;;;108930;1262;22602;-29
2022/11/05 05:54:06;;;;;;;7.30;5.40;;;;;;;;;;108941;1263;25386;-29
2022/11/05 05:56:39;;;;;;;8.20;5.70;;;;;;;;;;108931;1266;22536;-29
2022/11/05 05:59:14;;;;;;;7.40;5.40;;;;;;;;;;108995;1260;22612;-29
2022/11/05 06:01:46;;;;;;;7.10;5.20;;;;;;;;;;109010;1261;22525;-29
2022/11/05 06:04:21;;;;;;;8.70;6.10;;;;;;;;;;109020;1261;22496;-29
2022/11/05 06:06:53;;;;;;;7.80;5.60;;;;;;;;;;108977;1263;22558;-29
2022/11/05 06:09:25;;;;;;;7.70;5.70;;;;;;;;;;108937;1266;22588;-29
2022/11/05 06:11:57;;;;;;;9.50;6.10;;;;;;;;;;108887;1263;22540;-29
2022/11/05 06:14:29;;;;;;;8.40;5.80;;;;;;;;;;108972;1260;25253;-29
2022/11/05 06:17:02;;;;;;;8.00;5.70;;;;;;;;;;108926;1259;22622;-29
2022/11/05 06:19:34;;;;;;;8.40;5.80;;;;;;;;;;109009;1266;22556;-29
2022/11/05 06:22:06;;;;;;;8.50;6.20;;;;;;;;;;109020;1261;22544;-30
2022/11/05 06:24:41;;;;;;;8.20;5.70;;;;;;;;;;109031;1266;25123;-29
2022/11/05 06:27:13;;;;;;;8.30;6.00;;;;;;;;;;108990;1266;22549;-29
2022/11/05 06:29:45;;;;;;;7.90;5.90;;;;;;;;;;108920;1263;22547;-29
2022/11/05 06:32:18;;;;;;;7.60;5.50;;;;;;;;;;108946;1262;23939;-30
2022/11/05 06:34:50;;;;;;;9.10;6.30;;;;;;;;;;108949;1262;22541;-30
2022/11/05 06:37:22;;;;;;;7.40;5.40;;;;;;;;;;108955;1262;22660;-30
2022/11/05 06:39:56;;;;;;;8.70;6.10;;;;;;;;;;108988;1261;26116;-30
2022/11/05 06:42:28;;;;;;;8.40;6.00;;;;;;;;;;109036;1253;24245;-29
2022/11/05 06:45:01;;;;;;;8.10;5.90;;;;;;;;;;109043;1263;22541;-29
2022/11/05 06:47:33;;;;;;;8.40;6.10;;;;;;;;;;109013;1263;22535;-29
2022/11/05 06:50:06;;;;;;;8.30;5.50;;;;;;;;;;108876;1262;22537;-29
2022/11/05 06:52:38;;;;;;;8.30;6.30;;;;;;;;;;108921;1262;22537;-29
2022/11/05 06:55:12;;;;;;;8.70;6.10;;;;;;;;;;108935;1259;22540;-29
2022/11/05 06:57:44;;;;;;;7.80;6.20;;;;;;;;;;108970;1261;22549;-29
2022/11/05 07:00:18;;;;;;;8.40;5.40;;;;;;;;;;108979;1262;22684;-29
2022/11/05 07:02:54;;;;;;;8.40;6.10;;;;;;;;;;109047;1264;22538;-29
2022/11/05 07:05:27;;;;;;;7.70;6.10;;;;;;;;;;108991;1263;22577;-29
2022/11/05 07:07:59;;;;;;;7.90;5.40;;;;;;;;;;109035;1261;22541;-29
2022/11/05 07:10:32;;;;;;;7.00;5.20;;;;;;;;;;108883;1262;22740;-29
2022/11/05 07:13:04;;;;;;;7.90;5.80;;;;;;;;;;108927;1262;23842;-29
2022/11/05 07:15:36;;;;;;;8.40;6.10;;;;;;;;;;108942;1262;22524;-29
2022/11/05 07:18:09;;;;;;;9.10;6.00;;;;;;;;;;108927;1256;21812;-29
2022/11/05 07:20:41;;;;;;;8.50;6.50;;;;;;;;;;109020;1262;22553;-29
2022/11/05 07:23:15;;;;;;;8.10;6.00;;;;;;;;;;109045;1263;24217;-29
2022/11/05 07:25:48;;;;;;;7.40;5.70;;;;;;;;;;109048;1262;22597;-29
2022/11/05 07:28:20;;;;;;;8.20;5.90;;;;;;;;;;109067;1262;22519;-29
2022/11/05 07:30:52;;;;;;;7.20;5.50;;;;;;;;;;108871;1261;22590;-29
2022/11/05 07:33:25;;;;;;;7.50;5.80;;;;;;;;;;108941;1262;22620;-29
2022/11/05 07:36:00;;;;;;;8.20;6.10;;;;;;;;;;108954;1259;22553;-29
2022/11/05 07:38:35;;;;;;;8.40;5.80;;;;;;;;;;108944;1263;22544;-29
2022/11/05 07:41:07;;;;;;;7.60;5.70;;;;;;;;;;108900;1262;22575;-29
2022/11/05 07:43:39;;;;;;;8.50;5.80;;;;;;;;;;108933;1263;22537;-29
2022/11/05 07:46:12;;;;;;;7.10;5.90;;;;;;;;;;108950;1256;24302;-29
2022/11/05 07:48:44;;;;;;;8.60;5.60;;;;;;;;;;108918;1262;24196;-29
2022/11/05 07:51:17;;;;;;;6.90;5.50;;;;;;;;;;108861;1262;22562;-29
2022/11/05 07:53:49;;;;;;;7.40;5.80;;;;;;;;;;108914;1257;22545;-29
2022/11/05 07:56:21;;;;;;;8.30;5.80;;;;;;;;;;108930;1262;22579;-29
2022/11/05 07:58:56;;;;;;;8.70;5.60;;;;;;;;;;108920;1265;24171;-29
2022/11/05 08:01:29;;;;;;;7.70;5.70;;;;;;;;;;108902;1262;23703;-29
2022/11/05 08:04:01;;;;;;;9.10;6.30;;;;;;;;;;108722;1256;334255;-29
2022/11/05 08:06:34;;;;;;;8.20;5.70;;;;;;;;;;108948;1257;22555;-29
2022/11/05 08:09:06;;;;;;;8.00;6.00;;;;;;;;;;108963;1262;22546;-29
2022/11/05 08:11:38;;;;;;;7.50;5.40;;;;;;;;;;108839;1263;24253;-29
2022/11/05 08:14:12;;;;;;;7.70;5.90;;;;;;;;;;108856;1258;23825;-30
2022/11/05 08:16:47;;;;;;;8.20;5.70;;;;;;;;;;108857;1265;22668;-30
2022/11/05 08:19:19;;;;;;;8.80;6.50;;;;;;;;;;108888;1262;22579;-30
2022/11/05 08:21:51;;;;;;;8.20;5.80;;;;;;;;;;108916;1262;22586;-30
2022/11/05 08:24:24;;;;;;;7.60;5.90;;;;;;;;;;108943;1259;22547;-30
2022/11/05 08:26:56;;;;;;;8.40;6.20;;;;;;;;;;108940;1262;22545;-30
2022/11/05 08:29:29;;;;;;;7.30;5.90;;;;;;;;;;108936;1262;22543;-30
2022/11/05 08:32:01;;;;;;;9.00;6.30;;;;;;;;;;108959;1262;22553;-30
2022/11/05 08:34:33;;;;;;;8.30;5.80;;;;;;;;;;108948;1256;22525;-30
2022/11/05 08:37:05;;;;;;;8.40;5.70;;;;;;;;;;108938;1262;22748;-30
2022/11/05 08:39:38;;;;;;;8.30;6.00;;;;;;;;;;108955;1262;22533;-30
2022/11/05 08:42:10;;;;;;;8.00;6.30;;;;;;;;;;108948;1262;22543;-30
2022/11/05 08:44:42;;;;;;;7.80;5.90;;;;;;;;;;109005;1262;22532;-30
2022/11/05 08:47:15;;;;;;;8.00;6.00;;;;;;;;;;108969;1262;25300;-30
2022/11/05 08:49:47;;;;;;;8.60;6.50;;;;;;;;;;109009;1256;22708;-30
2022/11/05 08:52:19;;;;;;;8.20;6.20;;;;;;;;;;108882;1263;25470;-30
2022/11/05 08:54:51;;;;;;;8.60;6.30;;;;;;;;;;108909;1262;24037;-30
2022/11/05 08:57:24;;;;;;;8.30;6.20;;;;;;;;;;108909;1256;22629;-30
2022/11/05 08:59:57;;;;;;;8.00;6.20;;;;;;;;;;108908;1262;25402;-30
2022/11/05 09:02:32;;;;;;;8.20;6.20;;;;;;;;;;108925;1262;25414;-29
2022/11/05 09:05:05;;;;;;;8.30;6.80;;;;;;;;;;108975;1256;25420;-29
2022/11/05 09:07:37;;;;;;;8.30;6.50;;;;;;;;;;108946;1262;22530;-29
2022/11/05 09:10:12;;;;;;;8.30;6.00;;;;;;;;;;108937;1262;22577;-29
2022/11/05 09:12:45;;;;;;;9.00;6.10;;;;;;;;;;108886;1262;22559;-30
2022/11/05 09:15:18;;;;;;;9.20;6.50;;;;;;;;;;108874;1262;22604;-30
2022/11/05 09:17:52;;;;;;;8.30;6.10;;;;;;;;;;108883;1262;22486;-30
2022/11/05 09:20:25;;;;;;;8.20;6.30;;;;;;;;;;108876;1262;22576;-30
2022/11/05 09:22:58;;;;;;;8.40;6.20;;;;;;;;;;108898;1262;22551;-30
2022/11/05 09:25:33;;;;;;;8.50;6.50;;;;;;;;;;108921;1261;22574;-30
2022/11/05 09:28:17;;;;;;;10.40;7.00;;;;;;;;;;108908;1262;22655;-30
2022/11/05 09:30:52;;;;;;;8.10;6.70;;;;;;;;;;108940;1259;22574;-30
2022/11/05 09:33:27;;;;;;;9.50;7.30;;;;;;;;;;108878;1262;22628;-30
2022/11/05 09:36:02;;;;;;;9.60;6.70;;;;;;;;;;108890;1262;22555;-30
2022/11/05 09:38:35;;;;;;;9.90;7.10;;;;;;;;;;108879;1256;26031;-30
2022/11/05 09:41:15;;;;;;;8.60;7.10;;;;;;;;;;108879;1262;22574;-30
2022/11/05 09:43:53;;;;;;;9.10;7.00;;;;;;;;;;108915;1262;22547;-28
2022/11/05 09:46:35;;;;;;;10.00;7.00;;;;;;;;;;108936;1261;22668;-28
2022/11/05 09:49:16;;;;;;;9.30;7.30;;;;;;;;;;108925;1255;22634;-28
2022/11/05 09:51:48;;;;;;;10.70;7.90;;;;;;;;;;108852;1262;22562;-28
2022/11/05 09:54:24;;;;;;;10.00;7.70;;;;;;;;;;108861;1262;22557;-28
2022/11/05 09:56:57;;;;;;;8.80;7.10;;;;;;;;;;108904;1262;23666;-29
2022/11/05 09:59:35;;;;;;;10.00;7.60;;;;;;;;;;108894;1262;22547;-29
2022/11/05 10:02:21;;;;;;;9.80;7.30;;;;;;;;;;108887;1262;22568;-29
2022/11/05 10:04:57;;;;;;;9.40;7.60;;;;;;;;;;108933;1263;22541;-29
2022/11/05 10:07:36;;;;;;;9.60;7.60;;;;;;;;;;108951;1262;22515;-29
2022/11/05 10:10:34;;;;;;;9.30;7.50;;;;;;;;;;108947;1262;22548;-29
2022/11/05 10:13:15;;;;;;;9.10;7.10;;;;;;;;;;108876;1256;23003;-30
2022/11/05 10:16:00;;;;;;;12.00;7.90;;;;;;;;;;108916;1256;22521;-30
2022/11/05 10:18:37;;;;;;;10.10;7.40;;;;;;;;;;108893;1262;22667;-29
2022/11/05 10:21:15;;;;;;;10.10;7.80;;;;;;;;;;108938;1262;22544;-29
2022/11/05 10:23:49;;;;;;;9.90;7.50;;;;;;;;;;108940;1262;22522;-29
2022/11/05 10:26:26;;;;;;;10.80;7.80;;;;;;;;;;108984;1262;22674;-29
2022/11/05 10:28:59;;;;;;;11.10;7.70;;;;;;;;;;108956;1262;22931;-29
2022/11/05 10:31:35;;;;;;;9.80;7.50;;;;;;;;;;108980;1262;24218;-29
2022/11/05 10:34:12;;;;;;;9.00;7.00;;;;;;;;;;108881;1262;22683;-29
2022/11/05 10:36:45;;;;;;;9.70;7.70;;;;;;;;;;108926;1262;22580;-29
2022/11/05 10:39:23;;;;;;;10.30;7.60;;;;;;;;;;108873;1262;22552;-28
2022/11/05 10:42:14;;;;;;;9.40;7.20;;;;;;;;;;108892;1262;22542;-27
2022/11/05 10:44:53;;;;;;;9.70;7.70;;;;;;;;;;108890;1262;22727;-27
2022/11/05 10:47:54;;;;;;;10.50;7.80;;;;;;;;;;108886;1262;22544;-27
2022/11/05 10:50:29;;;;;;;9.60;7.30;;;;;;;;;;108899;1262;22533;-28
2022/11/05 10:53:07;;;;;;;10.10;8.10;;;;;;;;;;108830;1262;23775;-27
2022/11/05 10:55:43;;;;;;;10.00;7.80;;;;;;;;;;108884;1256;25487;-27
2022/11/05 10:58:34;;;;;;;10.40;7.90;;;;;;;;;;108875;1256;22550;-28
2022/11/05 11:01:13;;;;;;;9.70;7.90;;;;;;;;;;108817;1262;22642;-27
2022/11/05 11:03:48;;;;;;;12.10;8.30;;;;;;;;;;108848;1262;22699;-28
2022/11/05 11:06:27;;;;;;;9.90;8.20;;;;;;;;;;108901;1262;22595;-28
2022/11/05 11:09:02;;;;;;;11.30;8.50;;;;;;;;;;108892;1259;22653;-28
2022/11/05 11:11:39;;;;;;;9.60;8.10;;;;;;;;;;108866;1261;22493;-28
2022/11/05 11:14:22;;;;;;;10.40;8.10;;;;;;;;;;108844;1262;22486;-28
2022/11/05 11:16:56;;;;;;;9.60;7.90;;;;;;;;;;108809;1262;23056;-28
2022/11/05 11:19:31;;;;;;;10.40;8.70;;;;;;;;;;108722;1262;23686;-27
2022/11/05 11:22:21;;;;;;;10.60;8.60;;;;;;;;;;108748;1264;23848;-27
2022/11/05 11:24:54;;;;;;;9.70;8.10;;;;;;;;;;108743;1262;22573;-27
2022/11/05 11:27:33;;;;;;;10.70;8.60;;;;;;;;;;108935;1262;22516;-28
2022/11/05 11:30:15;;;;;;;11.10;9.10;;;;;;;;;;108880;1262;22540;-29
2022/11/05 11:32:50;;;;;;;11.30;9.40;;;;;;;;;;108941;1262;22693;-29
2022/11/05 11:35:25;;;;;;;10.40;8.90;;;;;;;;;;108801;1262;22589;-29
2022/11/05 11:38:01;;;;;;;10.50;9.40;;;;;;;;;;108770;1264;22640;-28
2022/11/05 11:40:36;;;;;;;10.50;9.00;;;;;;;;;;108751;1265;22533;-29
2022/11/05 11:43:24;;;;;;;12.10;9.50;;;;;;;;;;108809;1263;22565;-28
2022/11/05 11:46:00;;;;;;;12.60;9.50;;;;;;;;;;108825;1263;22764;-28
2022/11/05 11:48:36;;;;;;;13.20;10.00;;;;;;;;;;108851;1262;22568;-27
2022/11/05 11:51:29;;;;;;;12.50;9.50;;;;;;;;;;108807;1260;22537;-27
2022/11/05 11:54:05;;;;;;;13.10;10.00;;;;;;;;;;108835;1262;22666;-29
2022/11/05 11:56:48;;;;;;;13.00;9.80;;;;;;;;;;108878;1262;22539;-29
2022/11/05 11:59:28;;;;;;;12.20;10.00;;;;;;;;;;108873;1262;22529;-27
2022/11/05 12:02:32;;;;;;;14.40;10.30;;;;;;;;;;108844;1262;24209;-27
2022/11/05 12:05:22;;;;;;;11.20;9.60;;;;;;;;;;108883;1262;22533;-27
2022/11/05 12:07:58;;;;;;;12.80;10.20;;;;;;;;;;108876;1262;22537;-27
2022/11/05 12:10:48;;;;;;;13.90;10.70;;;;;;;;;;108903;1262;25468;-27
2022/11/05 12:13:56;;;;;;;13.80;11.00;;;;;;;;;;108890;1253;22539;-27
2022/11/05 12:16:57;;;;;;;13.60;10.20;;;;;;;;;;108511;1265;22561;-27
2022/11/05 12:19:49;;;;;;;13.20;10.30;;;;;;;;;;108667;1262;23445;-27
2022/11/05 12:22:31;;;;;;;13.00;11.00;;;;;;;;;;108662;1265;23829;-27
2022/11/05 12:25:24;;;;;;;11.70;10.40;;;;;;;;;;108654;1265;22655;-27
2022/11/05 12:28:18;;;;;;;11.80;9.80;;;;;;;;;;108790;1265;22563;-27
2022/11/05 12:30:55;;;;;;;;;;;;;;;;;;108800;1262;22543;-27
2022/11/05 12:33:43;;;;;;;11.80;9.80;;;;;;;;;;108788;1262;22541;-27
2022/11/05 12:36:37;;;;;;;13.80;11.00;;;;;;;;;;108856;1256;25346;-27
2022/11/05 12:39:42;;;;;;;11.90;10.50;;;;;;;;;;108873;1262;23593;-27
2022/11/05 12:42:32;;;;;;;13.00;10.90;;;;;;;;;;108831;1262;22548;-29
2022/11/05 12:45:19;;;;;;;14.40;10.40;;;;;;;;;;108896;1262;22554;-29
2022/11/05 12:48:08;;;;;;;13.10;10.00;;;;;;;;;;108900;1262;22703;-29
2022/11/05 12:50:47;;;;;;;11.90;10.10;;;;;;;;;;108956;1262;22576;-29
2022/11/05 12:53:38;;;;;;;12.20;10.60;;;;;;;;;;108931;1262;22610;-29
2022/11/05 12:56:20;;;;;;;11.80;9.70;;;;;;;;;;108925;1262;23279;-29
2022/11/05 12:59:03;;;;;;;11.90;10.10;;;;;;;;;;108866;1262;22545;-29
2022/11/05 13:01:44;;;;;;;13.60;10.30;;;;;;;;;;108784;1263;22544;-29
2022/11/05 13:04:27;;;;;;;12.30;10.30;;;;;;;;;;108758;1256;25271;-28
2022/11/05 13:07:05;;;;;;;13.20;10.60;;;;;;;;;;108771;1263;22554;-29
2022/11/05 13:09:44;;;;;;;13.60;10.40;;;;;;;;;;108775;1265;23896;-29
2022/11/05 13:12:20;;;;;;;12.70;10.00;;;;;;;;;;108794;1263;22557;-28
2022/11/05 13:14:59;;;;;;;13.60;10.70;;;;;;;;;;108803;1262;22541;-28
2022/11/05 13:17:37;;;;;;;13.00;11.10;;;;;;;;;;108736;1263;22673;-28
2022/11/05 13:20:20;;;;;;;14.00;10.20;;;;;;;;;;108830;1265;23009;-29
2022/11/05 13:22:56;;;;;;;12.90;10.00;;;;;;;;;;108819;1256;22491;-29
2022/11/05 13:25:33;;;;;;;12.60;10.20;;;;;;;;;;108806;1262;22570;-28
2022/11/05 13:28:21;;;;;;;12.40;11.00;;;;;;;;;;108838;1263;22536;-28
2022/11/05 13:31:00;;;;;;;13.00;10.70;;;;;;;;;;108865;1262;22656;-28
2022/11/05 13:33:38;;;;;;;12.80;10.20;;;;;;;;;;108863;1262;22543;-28
2022/11/05 13:39:19;;;;;;;11.60;10.10;;;;;;;;;;108850;1262;22597;-28
2022/11/05 13:42:54;;;;;;;11.70;10.00;;;;;;;;;;108865;1262;25264;-28
2022/11/05 13:46:16;;;;;;;13.30;10.10;;;;;;;;;;108486;1264;22775;-28
2022/11/05 13:49:07;;;;;;;12.10;10.20;;;;;;;;;;108854;1262;22541;-28
2022/11/05 13:51:50;;;;;;;12.60;10.50;;;;;;;;;;108861;1262;22574;-27
2022/11/05 13:55:16;;;;;;;15.30;10.50;;;;;;;;;;108897;1262;22671;-28
2022/11/05 13:58:27;;;;;;;14.30;10.60;;;;;;;;;;108491;1263;22554;-28
2022/11/05 14:01:13;;;;;;;13.30;10.70;;;;;;;;;;108894;1262;22546;-29
2022/11/05 14:03:52;;;;;;;13.00;10.40;;;;;;;;;;108887;1262;22535;-29
2022/11/05 14:06:30;;;;;;;15.10;10.70;;;;;;;;;;108882;1262;22542;-29
2022/11/05 14:09:09;;;;;;;13.00;10.20;;;;;;;;;;108877;1262;24279;-29
2022/11/05 14:11:49;;;;;;;12.70;10.10;;;;;;;;;;108884;1261;22725;-29
2022/11/05 14:14:24;;;;;;;12.80;10.00;;;;;;;;;;108861;1262;25401;-28
2022/11/05 14:17:15;;;;;;;13.30;10.70;;;;;;;;;;108883;1262;25399;-29
2022/11/05 14:20:23;;;;;;;13.60;10.60;;;;;;;;;;108861;1262;25395;-28
2022/11/05 14:23:38;;;;;;;13.10;11.10;;;;;;;;;;108927;1262;22663;-28
2022/11/05 14:26:22;;;;;;;12.80;9.80;;;;;;;;;;108911;1260;22608;-28
2022/11/05 14:29:24;;;;;;;11.40;9.50;;;;;;;;;;108882;1262;23796;-28
2022/11/05 14:32:23;;;;;;;13.00;10.70;;;;;;;;;;108885;1262;22504;-28
2022/11/05 14:35:03;;;;;;;13.20;10.50;;;;;;;;;;108889;1262;22561;-28
2022/11/05 14:37:38;;;;;;;12.10;10.30;;;;;;;;;;108933;1262;22546;-28
2022/11/05 14:40:35;;;;;;;11.70;10.40;;;;;;;;;;108845;1262;22547;-28
2022/11/05 14:43:18;;;;;;;12.40;10.70;;;;;;;;;;108902;1262;25927;-28
2022/11/05 14:46:01;;;;;;;13.10;10.10;;;;;;;;;;108875;1262;22580;-28
2022/11/05 14:48:46;;;;;;;12.50;10.20;;;;;;;;;;108828;1255;23955;-28
2022/11/05 14:51:31;;;;;;;12.40;10.50;;;;;;;;;;108908;1256;22561;-28
2022/11/05 14:54:18;;;;;;;12.70;10.40;;;;;;;;;;108898;1262;22558;-28
2022/11/05 14:56:53;;;;;;;12.20;10.50;;;;;;;;;;108888;1262;23978;-28
2022/11/05 14:59:55;;;;;;;14.30;10.90;;;;;;;;;;108833;1262;22599;-28
2022/11/05 15:02:35;;;;;;;13.20;10.50;;;;;;;;;;108927;1256;22541;-29
2022/11/05 15:05:49;;;;;;;11.40;9.80;;;;;;;;;;108890;1262;22664;-28
2022/11/05 15:08:37;;;;;;;13.00;10.60;;;;;;;;;;108592;1262;22533;-29
2022/11/05 15:11:18;;;;;;;12.90;10.50;;;;;;;;;;108961;1262;22549;-27
2022/11/05 15:14:06;;;;;;;11.50;9.70;;;;;;;;;;108873;1262;23930;-26
2022/11/05 15:16:47;;;;;;;12.50;10.90;;;;;;;;;;108855;1256;22587;-26
2022/11/05 15:19:26;;;;;;;13.10;10.70;;;;;;;;;;108823;1260;22548;-27
2022/11/05 15:22:01;;;;;;;12.00;10.10;;;;;;;;;;108874;1262;22538;-26
2022/11/05 15:24:34;;;;;;;13.30;10.50;;;;;;;;;;108845;1259;22531;-27
2022/11/05 15:27:14;;;;;;;14.30;10.80;;;;;;;;;;108859;1261;22603;-28
2022/11/05 15:29:47;;;;;;;13.00;10.60;;;;;;;;;;108870;1262;22536;-29
2022/11/05 15:32:30;;;;;;;13.60;11.20;;;;;;;;;;108863;1262;22509;-28
2022/11/05 15:35:16;;;;;;;13.80;10.10;;;;;;;;;;108861;1262;22544;-28
2022/11/05 15:37:51;;;;;;;13.30;10.80;;;;;;;;;;108875;1262;22558;-29
2022/11/05 15:40:31;;;;;;;12.50;10.50;;;;;;;;;;108808;1262;22596;-26
2022/11/05 15:43:20;;;;;;;14.50;11.20;;;;;;;;;;108802;1262;22679;-27
2022/11/05 15:46:06;;;;;;;12.80;10.30;;;;;;;;;;108899;1255;25446;-27
2022/11/05 15:48:39;;;;;;;12.80;10.60;;;;;;;;;;108913;1262;22650;-27
2022/11/05 15:51:15;;;;;;;12.00;10.50;;;;;;;;;;108836;1262;22693;-27
2022/11/05 15:54:02;;;;;;;12.50;10.80;;;;;;;;;;108879;1262;25411;-27
2022/11/05 15:56:38;;;;;;;13.30;10.60;;;;;;;;;;108854;1262;22538;-27
2022/11/05 15:59:20;;;;;;;12.20;10.60;;;;;;;;;;108893;1262;22568;-28
2022/11/05 16:01:56;;;;;;;12.80;10.80;;;;;;;;;;108825;1262;23836;-27
2022/11/05 16:04:31;;;;;;;11.50;10.20;;;;;;;;;;108701;1256;245693;-27
2022/11/05 16:07:11;;;;;;;13.60;11.10;;;;;;;;;;108894;1262;22534;-27
2022/11/05 16:09:53;;;;;;;12.60;10.40;;;;;;;;;;108893;1262;22672;-28
2022/11/05 16:12:35;;;;;;;12.70;10.10;;;;;;;;;;108851;1262;22542;-27
2022/11/05 16:15:24;;;;;;;12.10;9.90;;;;;;;;;;108903;1262;25270;-27
2022/11/05 16:17:59;;;;;;;12.70;10.00;;;;;;;;;;108882;1262;22566;-27